createdAt,value
2022-12-25T00:00:43.513Z,24.85
2022-12-25T00:04:08.390Z,14.77
2022-12-25T00:07:34.083Z,18.40
2022-12-25T00:11:01.027Z,18.73
2022-12-25T00:14:24.357Z,20.63
2022-12-25T00:17:47.676Z,21.50
2022-12-25T00:21:13.355Z,26.23
2022-12-25T00:24:36.699Z,19.40
2022-12-25T00:27:59.994Z,21.35
2022-12-25T00:31:23.840Z,19.20
2022-12-25T00:34:49.129Z,14.63
2022-12-25T00:38:13.814Z,22.42
2022-12-25T00:41:55.160Z,24.05
2022-12-25T00:45:18.523Z,23.42
2022-12-25T00:48:45.107Z,20.55
2022-12-25T00:52:08.429Z,18.77
2022-12-25T00:55:33.605Z,16.83
2022-12-25T00:58:57.127Z,25.90
2022-12-25T01:02:26.975Z,26.27
2022-12-25T01:05:56.434Z,23.00
2022-12-25T01:09:39.957Z,30.10
2022-12-25T01:13:04.703Z,24.52
2022-12-25T01:16:28.210Z,23.33
2022-12-25T01:19:51.616Z,24.60
2022-12-25T01:23:14.917Z,26.40
2022-12-25T01:26:38.217Z,33.90
2022-12-25T01:30:03.839Z,20.70
2022-12-25T01:33:27.443Z,33.45
2022-12-25T01:36:50.794Z,24.30
2022-12-25T01:40:14.259Z,26.70
2022-12-25T01:43:37.538Z,20.65
2022-12-25T01:47:02.190Z,20.65
2022-12-25T01:50:25.694Z,19.20
2022-12-25T01:53:49.261Z,18.98
2022-12-25T01:57:14.705Z,25.10
2022-12-25T02:00:38.100Z,30.65
2022-12-25T02:04:04.784Z,25.75
2022-12-25T02:07:29.350Z,25.45
2022-12-25T02:10:52.630Z,18.35
2022-12-25T02:14:16.084Z,14.27
2022-12-25T02:17:42.361Z,10.80
2022-12-25T02:21:15.790Z,13.18
2022-12-25T02:24:47.454Z,18.70
2022-12-25T02:28:14.842Z,16.20
2022-12-25T02:31:40.222Z,21.27
2022-12-25T02:35:06.024Z,12.45
2022-12-25T02:38:31.615Z,14.05
2022-12-25T02:41:54.747Z,13.75
2022-12-25T02:45:39.869Z,9.38
2022-12-25T02:49:23.044Z,8.43
2022-12-25T02:53:03.982Z,14.30
2022-12-25T02:56:47.212Z,11.63
2022-12-25T03:00:28.949Z,11.27
2022-12-25T03:04:13.997Z,10.95
2022-12-25T03:07:40.058Z,10.90
2022-12-25T03:11:22.359Z,12.20
2022-12-25T03:15:03.323Z,9.23
2022-12-25T03:18:28.189Z,9.73
2022-12-25T03:22:19.698Z,10.75
2022-12-25T03:26:00.853Z,13.10
2022-12-25T03:29:42.060Z,8.35
2022-12-25T03:33:36.664Z,10.73
2022-12-25T03:37:02.050Z,8.40
2022-12-25T03:40:54.142Z,12.57
2022-12-25T03:44:41.692Z,17.15
2022-12-25T03:48:24.381Z,9.80
2022-12-25T03:52:06.771Z,9.70
2022-12-25T03:55:54.994Z,9.75
2022-12-25T03:59:37.677Z,13.60
2022-12-25T04:03:18.893Z,12.18
2022-12-25T04:07:00.291Z,18.75
2022-12-25T04:10:41.430Z,17.33
2022-12-25T04:14:23.662Z,17.58
2022-12-25T04:18:04.562Z,15.55
2022-12-25T04:21:45.633Z,19.27
2022-12-25T04:25:27.138Z,16.55
2022-12-25T04:29:08.133Z,15.57
2022-12-25T04:32:50.668Z,19.67
2022-12-25T04:36:14.045Z,18.27
2022-12-25T04:39:37.328Z,15.93
2022-12-25T04:43:00.625Z,13.75
2022-12-25T04:46:24.052Z,11.35
2022-12-25T04:49:48.735Z,9.07
2022-12-25T04:53:12.017Z,20.20
2022-12-25T04:56:39.988Z,14.35
2022-12-25T05:00:05.886Z,13.82
2022-12-25T05:03:29.309Z,18.80
2022-12-25T05:06:54.051Z,18.42
2022-12-25T05:10:17.482Z,17.55
2022-12-25T05:13:40.863Z,9.88
2022-12-25T05:17:04.315Z,11.45
2022-12-25T05:20:27.624Z,13.93
2022-12-25T05:23:52.803Z,9.13
2022-12-25T05:27:16.129Z,11.98
2022-12-25T05:30:39.442Z,9.32
2022-12-25T05:34:02.771Z,7.50
2022-12-25T05:37:26.057Z,9.43
2022-12-25T05:40:52.847Z,11.73
2022-12-25T05:44:16.139Z,18.27
2022-12-25T05:47:39.409Z,10.18
2022-12-25T05:51:05.324Z,15.60
2022-12-25T05:54:28.617Z,15.15
2022-12-25T05:57:53.233Z,17.92
2022-12-25T06:01:18.240Z,25.55
2022-12-25T06:04:41.653Z,14.38
2022-12-25T06:08:04.962Z,13.18
2022-12-25T06:11:28.245Z,21.20
2022-12-25T06:14:52.886Z,12.65
2022-12-25T06:18:16.162Z,9.70
2022-12-25T06:21:39.520Z,12.80
2022-12-25T06:25:02.852Z,11.35
2022-12-25T06:28:26.319Z,9.10
2022-12-25T06:31:54.896Z,14.75
2022-12-25T06:35:18.294Z,10.13
2022-12-25T06:38:41.651Z,9.70
2022-12-25T06:42:05.013Z,8.35
2022-12-25T06:45:28.383Z,12.95
2022-12-25T06:48:53.318Z,10.85
2022-12-25T06:52:16.585Z,8.60
2022-12-25T06:55:39.862Z,12.65
2022-12-25T06:59:03.881Z,11.05
2022-12-25T07:02:27.441Z,10.82
2022-12-25T07:05:52.119Z,12.85
2022-12-25T07:09:15.425Z,22.38
2022-12-25T07:12:38.710Z,17.27
2022-12-25T07:16:03.261Z,12.50
2022-12-25T07:19:26.755Z,17.33
2022-12-25T07:22:51.392Z,9.20
2022-12-25T07:26:15.216Z,9.52
2022-12-25T07:29:38.499Z,11.15
2022-12-25T07:33:01.855Z,11.40
2022-12-25T07:36:25.178Z,9.82
2022-12-25T07:39:49.884Z,6.80
2022-12-25T07:43:13.181Z,8.32
2022-12-25T07:46:36.489Z,12.75
2022-12-25T07:49:59.844Z,7.97
2022-12-25T07:53:24.019Z,6.32
2022-12-25T07:56:51.738Z,8.95
2022-12-25T08:00:16.026Z,10.48
2022-12-25T08:03:39.396Z,8.35
2022-12-25T08:07:02.762Z,12.27
2022-12-25T08:10:26.139Z,8.32
2022-12-25T08:13:50.837Z,6.90
2022-12-25T08:17:14.189Z,7.60
2022-12-25T08:20:37.961Z,8.13
2022-12-25T08:24:02.964Z,10.40
2022-12-25T08:27:26.234Z,10.00
2022-12-25T08:30:50.917Z,14.95
2022-12-25T08:34:14.404Z,14.00
2022-12-25T08:37:37.674Z,12.85
2022-12-25T08:41:00.957Z,13.45
2022-12-25T08:44:24.539Z,14.63
2022-12-25T08:47:49.159Z,11.65
2022-12-25T08:51:14.542Z,12.13
2022-12-25T08:54:37.939Z,15.48
2022-12-25T08:58:01.211Z,19.92
2022-12-25T09:01:24.608Z,17.90
2022-12-25T09:04:49.431Z,13.57
2022-12-25T09:08:12.705Z,19.67
2022-12-25T09:11:36.041Z,11.00
2022-12-25T09:14:59.348Z,13.88
2022-12-25T09:18:22.678Z,19.38
2022-12-25T09:21:47.325Z,17.85
2022-12-25T09:25:11.146Z,17.00
2022-12-25T09:28:34.975Z,16.50
2022-12-25T09:31:58.281Z,13.55
2022-12-25T09:35:21.632Z,20.77
2022-12-25T09:38:46.325Z,9.93
2022-12-25T09:42:12.553Z,13.98
2022-12-25T09:45:37.335Z,11.25
2022-12-25T09:49:03.612Z,12.82
2022-12-25T09:52:29.833Z,13.90
2022-12-25T09:56:00.974Z,15.57
2022-12-25T09:59:25.750Z,14.52
2022-12-25T10:02:58.148Z,16.77
2022-12-25T10:06:22.815Z,19.75
2022-12-25T10:09:53.438Z,23.90
2022-12-25T10:13:25.100Z,28.48
2022-12-25T10:16:52.061Z,26.90
2022-12-25T10:20:20.243Z,40.78
2022-12-25T10:23:45.231Z,34.83
2022-12-25T10:27:13.854Z,26.70
2022-12-25T10:30:38.531Z,29.35
2022-12-25T10:34:01.874Z,27.40
2022-12-25T10:37:26.813Z,27.65
2022-12-25T10:41:06.001Z,36.03
2022-12-25T10:44:29.272Z,45.28
2022-12-25T10:48:07.208Z,48.17
2022-12-25T10:51:31.696Z,47.00
2022-12-25T10:54:55.292Z,42.22
2022-12-25T10:58:20.952Z,47.05
2022-12-25T11:01:45.540Z,56.38
2022-12-25T11:05:11.573Z,40.00
2022-12-25T11:08:36.217Z,56.00
2022-12-25T11:11:59.549Z,65.60
2022-12-25T11:15:39.640Z,53.75
2022-12-25T11:19:03.350Z,57.15
2022-12-25T11:22:28.805Z,60.00
2022-12-25T11:25:58.815Z,57.75
2022-12-25T11:29:24.750Z,68.57
2022-12-25T11:32:55.274Z,45.95
2022-12-25T11:36:21.728Z,27.80
2022-12-25T11:39:46.394Z,22.92
2022-12-25T11:43:13.333Z,31.85
2022-12-25T11:46:40.443Z,24.77
2022-12-25T11:50:06.741Z,25.80
2022-12-25T11:53:31.812Z,30.10
2022-12-25T11:56:57.575Z,21.83
2022-12-25T12:00:21.311Z,28.23
2022-12-25T12:03:44.936Z,22.85
2022-12-25T12:07:10.763Z,44.40
2022-12-25T12:10:39.328Z,27.58
2022-12-25T12:14:07.509Z,22.70
2022-12-25T12:17:31.132Z,34.42
2022-12-25T12:21:01.883Z,29.63
2022-12-25T12:24:26.276Z,29.45
2022-12-25T12:27:56.335Z,31.20
2022-12-25T12:31:24.910Z,35.15
2022-12-25T12:34:50.063Z,32.22
2022-12-25T12:38:16.701Z,44.88
2022-12-25T12:41:43.969Z,40.58
2022-12-25T12:45:09.771Z,54.42
2022-12-25T12:48:39.486Z,42.53
2022-12-25T12:52:07.461Z,35.95
2022-12-25T12:55:31.299Z,49.78
2022-12-25T12:58:54.585Z,52.28
2022-12-25T13:02:32.711Z,46.47
2022-12-25T13:05:59.649Z,40.38
2022-12-25T13:09:29.211Z,29.17
2022-12-25T13:12:56.813Z,39.92
2022-12-25T13:16:23.825Z,46.17
2022-12-25T13:19:47.180Z,45.15
2022-12-25T13:23:25.572Z,52.03
2022-12-25T13:26:48.895Z,64.88
2022-12-25T13:30:16.344Z,53.42
2022-12-25T13:33:40.105Z,61.67
2022-12-25T13:37:10.542Z,44.83
2022-12-25T13:40:35.784Z,42.28
2022-12-25T13:43:59.796Z,36.45
2022-12-25T13:47:24.752Z,38.60
2022-12-25T13:50:57.827Z,34.60
2022-12-25T13:54:21.454Z,32.60
2022-12-25T13:57:51.127Z,32.53
2022-12-25T14:01:18.539Z,24.45
2022-12-25T14:04:45.599Z,29.23
2022-12-25T14:08:14.911Z,32.10
2022-12-25T14:11:39.043Z,32.33
2022-12-25T14:15:05.019Z,30.55
2022-12-25T14:18:28.704Z,26.63
2022-12-25T14:21:54.459Z,34.67
2022-12-25T14:25:17.898Z,30.23
2022-12-25T14:28:41.205Z,29.08
2022-12-25T14:32:07.206Z,31.40
2022-12-25T14:35:30.590Z,30.02
2022-12-25T14:38:58.710Z,34.75
2022-12-25T14:42:22.929Z,35.53
2022-12-25T14:45:55.388Z,29.08
2022-12-25T14:49:25.756Z,33.10
2022-12-25T14:52:49.094Z,37.80
2022-12-25T14:56:12.391Z,32.40
2022-12-25T14:59:35.790Z,36.33
2022-12-25T15:03:00.179Z,32.70
2022-12-25T15:06:25.584Z,40.53
2022-12-25T15:09:48.884Z,38.95
2022-12-25T15:13:13.280Z,35.75
2022-12-25T15:16:41.019Z,38.15
2022-12-25T15:20:05.383Z,40.00
2022-12-25T15:23:30.146Z,41.10
2022-12-25T15:26:55.292Z,42.92
2022-12-25T15:30:18.719Z,53.60
2022-12-25T15:33:44.216Z,52.50
2022-12-25T15:37:07.769Z,44.20
2022-12-25T15:40:32.388Z,44.40
2022-12-25T15:43:55.667Z,44.88
2022-12-25T15:47:20.215Z,43.40
2022-12-25T15:50:44.164Z,43.85
2022-12-25T15:54:07.732Z,39.20
2022-12-25T15:57:33.131Z,43.22
2022-12-25T16:00:56.446Z,41.83
2022-12-25T16:04:20.019Z,39.85
2022-12-25T16:07:43.403Z,39.58
2022-12-25T16:11:06.926Z,36.30
2022-12-25T16:14:31.624Z,39.88
2022-12-25T16:17:54.905Z,40.85
2022-12-25T16:21:19.651Z,31.27
2022-12-25T16:24:42.945Z,38.70
2022-12-25T16:28:09.529Z,34.08
2022-12-25T16:31:34.268Z,36.90
2022-12-25T16:34:57.621Z,36.30
2022-12-25T16:38:20.931Z,35.75
2022-12-25T16:41:44.244Z,33.33
2022-12-25T16:45:08.135Z,37.70
2022-12-25T16:48:32.804Z,39.50
2022-12-25T16:51:56.084Z,35.80
2022-12-25T16:55:20.302Z,40.72
2022-12-25T16:58:46.866Z,36.08
2022-12-25T17:02:11.694Z,37.83
2022-12-25T17:05:36.482Z,38.08
2022-12-25T17:09:02.121Z,34.17
2022-12-25T17:12:25.581Z,35.97
2022-12-25T17:15:50.742Z,40.75
2022-12-25T17:19:20.549Z,38.58
2022-12-25T17:22:45.205Z,33.03
2022-12-25T17:26:08.761Z,36.35
2022-12-25T17:29:32.791Z,36.00
2022-12-25T17:32:57.464Z,42.50
2022-12-25T17:36:21.695Z,41.17
2022-12-25T17:39:46.378Z,31.88
2022-12-25T17:43:11.937Z,30.95
2022-12-25T17:46:37.625Z,33.38
2022-12-25T17:50:00.999Z,32.80
2022-12-25T17:53:24.332Z,35.40
2022-12-25T17:56:49.296Z,38.78
2022-12-25T18:00:13.150Z,31.27
2022-12-25T18:03:36.789Z,31.80
2022-12-25T18:07:00.217Z,32.95
2022-12-25T18:10:23.533Z,35.03
2022-12-25T18:13:49.918Z,32.33
2022-12-25T18:17:13.312Z,29.35
2022-12-25T18:20:40.149Z,30.55
2022-12-25T18:24:04.486Z,33.53
2022-12-25T18:27:27.797Z,25.88
2022-12-25T18:30:52.431Z,19.05
2022-12-25T18:34:15.779Z,20.83
2022-12-25T18:37:40.226Z,19.13
2022-12-25T18:41:06.063Z,20.55
2022-12-25T18:44:30.868Z,17.90
2022-12-25T18:47:55.915Z,21.15
2022-12-25T18:51:19.246Z,18.25
2022-12-25T18:54:42.590Z,18.08
2022-12-25T18:58:05.853Z,20.55
2022-12-25T19:01:29.512Z,19.95
2022-12-25T19:04:54.285Z,24.90
2022-12-25T19:08:17.576Z,18.15
2022-12-25T19:11:45.945Z,19.38
2022-12-25T19:15:10.412Z,16.75
2022-12-25T19:18:33.728Z,21.05
2022-12-25T19:21:59.031Z,19.60
2022-12-25T19:25:22.336Z,22.08
2022-12-25T19:28:45.689Z,20.92
2022-12-25T19:32:09.030Z,22.58
2022-12-25T19:35:32.394Z,22.65
2022-12-25T19:38:57.222Z,22.02
2022-12-25T19:42:21.936Z,22.98
2022-12-25T19:45:45.253Z,20.30
2022-12-25T19:49:08.817Z,26.95
2022-12-25T19:52:32.167Z,23.27
2022-12-25T19:55:56.897Z,23.85
2022-12-25T19:59:20.192Z,30.63
2022-12-25T20:02:43.673Z,27.58
2022-12-25T20:06:07.945Z,24.05
2022-12-25T20:09:32.647Z,30.48
2022-12-25T20:12:57.335Z,32.30
2022-12-25T20:16:20.777Z,28.10
2022-12-25T20:19:44.087Z,31.10
2022-12-25T20:23:07.447Z,32.05
2022-12-25T20:26:31.551Z,31.35
2022-12-25T20:29:56.515Z,29.90
2022-12-25T20:33:19.882Z,28.15
2022-12-25T20:36:45.196Z,26.38
2022-12-25T20:40:09.237Z,29.13
2022-12-25T20:43:32.977Z,24.70
2022-12-25T20:47:00.930Z,26.23
2022-12-25T20:50:24.247Z,29.95
2022-12-25T20:53:47.848Z,31.00
2022-12-25T20:57:11.295Z,23.83
2022-12-25T21:00:34.622Z,25.20
2022-12-25T21:03:59.493Z,24.80
2022-12-25T21:07:22.827Z,26.98
2022-12-25T21:10:50.270Z,26.67
2022-12-25T21:14:13.589Z,26.52
2022-12-25T21:17:36.901Z,21.60
2022-12-25T21:21:05.677Z,20.55
2022-12-25T21:24:28.965Z,23.10
2022-12-25T21:27:52.262Z,21.80
2022-12-25T21:31:15.803Z,24.30
2022-12-25T21:34:38.251Z,26.90
2022-12-25T21:38:02.883Z,28.95
2022-12-25T21:41:26.501Z,38.72
2022-12-25T21:44:49.983Z,39.30
2022-12-25T21:48:14.171Z,36.50
2022-12-25T21:51:55.008Z,35.00
2022-12-25T21:55:19.912Z,55.30
2022-12-25T21:58:43.509Z,48.10
2022-12-25T22:02:11.308Z,31.33
2022-12-25T22:05:55.478Z,40.42
2022-12-25T22:09:19.156Z,37.22
2022-12-25T22:13:02.247Z,33.50
2022-12-25T22:16:43.188Z,24.38
2022-12-25T22:20:07.259Z,25.17
2022-12-25T22:23:30.789Z,26.05
2022-12-25T22:26:54.195Z,26.58
2022-12-25T22:30:20.123Z,24.35
2022-12-25T22:33:43.560Z,24.90
2022-12-25T22:37:07.829Z,21.88
2022-12-25T22:40:31.281Z,22.10
2022-12-25T22:44:18.979Z,18.92
2022-12-25T22:47:39.771Z,16.63
2022-12-25T22:51:04.103Z,16.02
2022-12-25T22:54:30.865Z,14.80
2022-12-25T22:57:54.403Z,12.10
2022-12-25T23:01:18.090Z,13.63
2022-12-25T23:04:45.705Z,12.80
2022-12-25T23:08:09.062Z,12.00
2022-12-25T23:11:32.614Z,14.10
2022-12-25T23:14:55.086Z,15.07
2022-12-25T23:18:35.972Z,10.93
2022-12-25T23:22:23.684Z,11.40
2022-12-25T23:26:04.524Z,11.90
2022-12-25T23:29:36.832Z,12.45
2022-12-25T23:33:00.269Z,11.40
2022-12-25T23:36:23.817Z,11.80
2022-12-25T23:39:50.022Z,20.35
2022-12-25T23:43:13.534Z,30.98
2022-12-25T23:46:37.415Z,20.20
2022-12-25T23:50:00.817Z,23.33
2022-12-25T23:53:24.180Z,23.30
2022-12-25T23:56:49.215Z,16.00
